46  °F
Temperature
43  °F
  Dewpoint
   Humidity
Temp | Dewpoint | Humidity
5  km/h
Wind Speed
3  mph
Wind Speed
3  kts
Wind Speed
110°
East South
East

Wind Speed
Clear
Conditions
Pressure 1017.62 (hPa) - 30.05 (in)
Visibility 8.0 (mi) - 12.9 (km)

Current Conditions
KAVP
Location 6km (3.2mi)
Metar :KAVP 230754Z 11003KT 8SM CLR 08/06 A3005 RMK AO2 SLP175 T00830061 $
Tue 23rd April 02:54 am

Airport
  Metar Aviation API Data Provided by https://www.checkwx.com/ CSS/SVG/PHP scripts by weather34.com © 2015-2019